createdAt,value
2019-04-07T00:01:57.321Z,17.80
2019-04-07T00:04:27.169Z,18.87
2019-04-07T00:06:56.685Z,17.70
2019-04-07T00:09:27.580Z,17.00
2019-04-07T00:11:57.104Z,16.93
2019-04-07T00:14:27.177Z,18.33
2019-04-07T00:16:56.952Z,17.87
2019-04-07T00:19:26.259Z,16.73
2019-04-07T00:21:55.789Z,17.43
2019-04-07T00:24:25.217Z,19.17
2019-04-07T00:26:54.521Z,18.20
2019-04-07T00:29:23.927Z,19.40
2019-04-07T00:31:53.203Z,17.07
2019-04-07T00:34:22.535Z,19.23
2019-04-07T00:36:52.187Z,18.93
2019-04-07T00:39:21.476Z,19.43
2019-04-07T00:41:50.885Z,20.17
2019-04-07T00:44:20.271Z,19.10
2019-04-07T00:46:49.922Z,19.53
2019-04-07T00:49:19.335Z,19.10
2019-04-07T00:51:49.725Z,18.97
2019-04-07T00:54:19.146Z,19.07
2019-04-07T00:56:49.056Z,19.13
2019-04-07T00:59:18.526Z,19.03
2019-04-07T01:01:47.938Z,18.67
2019-04-07T01:04:17.349Z,19.73
2019-04-07T01:06:47.318Z,19.13
2019-04-07T01:09:17.243Z,20.13
2019-04-07T01:11:46.605Z,18.90
2019-04-07T01:14:16.070Z,18.63
2019-04-07T01:16:45.672Z,20.60
2019-04-07T01:19:15.060Z,20.10
2019-04-07T01:21:44.585Z,19.73
2019-04-07T01:24:14.430Z,19.77
2019-04-07T01:26:43.859Z,20.27
2019-04-07T01:29:13.493Z,19.63
2019-04-07T01:31:43.100Z,19.03
2019-04-07T01:34:13.369Z,19.77
2019-04-07T01:36:42.963Z,19.77
2019-04-07T01:39:12.925Z,18.50
2019-04-07T01:41:51.089Z,19.93
2019-04-07T01:44:28.460Z,19.20
2019-04-07T01:47:13.478Z,19.80
2019-04-07T01:50:00.739Z,19.17
2019-04-07T01:52:52.316Z,19.60
2019-04-07T01:55:29.922Z,19.50
2019-04-07T01:58:17.365Z,19.07
2019-04-07T02:01:08.737Z,19.33
2019-04-07T02:03:54.542Z,20.67
2019-04-07T02:06:40.038Z,18.50
2019-04-07T02:09:31.702Z,20.10
2019-04-07T02:12:23.283Z,18.77
2019-04-07T02:15:21.692Z,19.57
2019-04-07T02:17:56.993Z,19.20
2019-04-07T02:20:58.996Z,18.80
2019-04-07T02:23:47.128Z,18.00
2019-04-07T02:26:34.383Z,20.00
2019-04-07T02:29:32.443Z,20.97
2019-04-07T02:32:23.529Z,18.60
2019-04-07T02:35:01.373Z,20.03
2019-04-07T02:37:42.612Z,20.57
2019-04-07T02:40:27.362Z,18.07
2019-04-07T02:43:27.940Z,19.27
2019-04-07T02:46:04.234Z,17.97
2019-04-07T02:49:08.223Z,19.23
2019-04-07T02:51:56.149Z,19.27
2019-04-07T02:54:52.870Z,19.00
2019-04-07T02:57:29.410Z,19.07
2019-04-07T03:00:15.965Z,20.73
2019-04-07T03:03:03.263Z,20.90
2019-04-07T03:05:40.507Z,20.47
2019-04-07T03:08:44.081Z,19.97
2019-04-07T03:11:35.425Z,20.20
2019-04-07T03:14:14.126Z,20.27
2019-04-07T03:17:20.862Z,21.90
2019-04-07T03:19:58.089Z,20.50
2019-04-07T03:22:55.292Z,23.10
2019-04-07T03:25:42.274Z,20.87
2019-04-07T03:28:40.010Z,21.07
2019-04-07T03:31:32.907Z,21.30
2019-04-07T03:34:11.600Z,22.13
2019-04-07T03:37:16.981Z,21.07
2019-04-07T03:39:53.290Z,20.83
2019-04-07T03:42:31.603Z,21.67
2019-04-07T03:45:13.624Z,21.67
2019-04-07T03:47:50.497Z,21.20
2019-04-07T03:50:36.666Z,21.53
2019-04-07T03:53:25.094Z,21.90
2019-04-07T03:56:16.410Z,22.90
2019-04-07T03:59:03.696Z,21.57
2019-04-07T04:01:53.999Z,22.33
2019-04-07T04:04:41.577Z,21.83
2019-04-07T04:07:36.123Z,21.67
2019-04-07T04:10:21.212Z,22.00
2019-04-07T04:13:21.855Z,21.70
2019-04-07T04:16:10.537Z,22.80
2019-04-07T04:18:40.609Z,21.33
2019-04-07T04:21:11.190Z,21.07
2019-04-07T04:23:43.022Z,23.90
2019-04-07T04:26:11.839Z,21.07
2019-04-07T04:28:41.850Z,22.00
2019-04-07T04:31:12.987Z,22.43
2019-04-07T04:33:42.523Z,23.03
2019-04-07T04:36:11.907Z,23.57
2019-04-07T04:38:41.382Z,34.13
2019-04-07T04:41:11.239Z,24.43
2019-04-07T04:43:40.674Z,23.40
2019-04-07T04:46:11.424Z,24.80
2019-04-07T04:48:41.284Z,24.97
2019-04-07T04:51:10.685Z,25.27
2019-04-07T04:53:40.290Z,23.73
2019-04-07T04:56:09.857Z,24.00
2019-04-07T04:58:39.315Z,24.13
2019-04-07T05:01:09.652Z,24.47
2019-04-07T05:03:39.097Z,22.17
2019-04-07T05:06:09.023Z,23.37
2019-04-07T05:08:39.113Z,24.77
2019-04-07T05:11:09.139Z,23.77
2019-04-07T05:13:38.557Z,25.40
2019-04-07T05:16:08.304Z,23.63
2019-04-07T05:18:38.287Z,23.03
2019-04-07T05:21:07.699Z,26.67
2019-04-07T05:23:37.110Z,25.23
2019-04-07T05:26:06.968Z,23.37
2019-04-07T05:28:36.978Z,26.43
2019-04-07T05:31:07.349Z,23.40
2019-04-07T05:33:36.799Z,26.33
2019-04-07T05:36:06.177Z,25.60
2019-04-07T05:38:35.721Z,26.20
2019-04-07T05:41:05.413Z,24.63
2019-04-07T05:43:35.490Z,26.30
2019-04-07T05:46:06.991Z,25.03
2019-04-07T05:48:35.949Z,25.50
2019-04-07T05:51:05.553Z,24.07
2019-04-07T05:53:34.969Z,24.70
2019-04-07T05:56:04.444Z,24.83
2019-04-07T05:58:37.548Z,22.57
2019-04-07T06:01:05.216Z,25.03
2019-04-07T06:03:38.608Z,23.30
2019-04-07T06:06:07.413Z,22.63
2019-04-07T06:08:39.163Z,23.07
2019-04-07T06:11:07.937Z,22.57
2019-04-07T06:13:37.946Z,22.87
2019-04-07T06:16:08.004Z,23.33
2019-04-07T06:18:37.919Z,23.23
2019-04-07T06:21:07.762Z,22.77
2019-04-07T06:23:37.523Z,21.43
2019-04-07T06:26:11.199Z,21.37
2019-04-07T06:28:38.165Z,22.30
2019-04-07T06:31:08.247Z,22.73
2019-04-07T06:33:39.085Z,21.23
2019-04-07T06:36:09.462Z,19.50
2019-04-07T06:38:43.316Z,20.57
2019-04-07T06:41:10.447Z,19.43
2019-04-07T06:43:40.211Z,18.60
2019-04-07T06:46:32.435Z,19.17
2019-04-07T06:49:11.705Z,19.43
2019-04-07T06:52:01.953Z,19.83
2019-04-07T06:54:39.877Z,20.63
2019-04-07T06:57:35.065Z,21.60
2019-04-07T07:00:29.979Z,18.60
2019-04-07T07:03:19.085Z,18.23
2019-04-07T07:06:22.944Z,18.30
2019-04-07T07:09:20.382Z,18.77
2019-04-07T07:11:57.250Z,17.83
2019-04-07T07:14:58.343Z,18.13
2019-04-07T07:17:48.616Z,17.83
2019-04-07T07:20:46.206Z,17.57
2019-04-07T07:23:23.153Z,17.57
2019-04-07T07:25:53.023Z,17.10
2019-04-07T07:28:24.800Z,17.70
2019-04-07T07:30:54.664Z,18.17
2019-04-07T07:33:24.440Z,18.63
2019-04-07T07:35:53.809Z,16.83
2019-04-07T07:38:23.221Z,18.40
2019-04-07T07:40:52.899Z,18.33
2019-04-07T07:43:22.695Z,18.70
2019-04-07T07:45:52.267Z,18.10
2019-04-07T07:48:26.229Z,17.60
2019-04-07T07:50:52.675Z,18.87
2019-04-07T07:53:25.573Z,20.87
2019-04-07T07:55:53.235Z,18.77
2019-04-07T07:58:22.559Z,18.00
2019-04-07T08:00:52.511Z,19.27
2019-04-07T08:03:22.959Z,18.37
2019-04-07T08:05:53.074Z,19.63
2019-04-07T08:08:23.433Z,18.70
2019-04-07T08:10:56.190Z,17.93
2019-04-07T08:13:24.770Z,17.77
2019-04-07T08:15:56.765Z,18.10
2019-04-07T08:18:26.141Z,18.77
2019-04-07T08:20:55.473Z,18.50
2019-04-07T08:23:25.322Z,17.70
2019-04-07T08:25:56.061Z,18.33
2019-04-07T08:28:26.486Z,19.33
2019-04-07T08:30:56.058Z,18.77
2019-04-07T08:33:28.803Z,17.23
2019-04-07T08:35:58.030Z,19.20
2019-04-07T08:38:28.337Z,18.70
2019-04-07T08:40:58.636Z,19.00
2019-04-07T08:43:28.125Z,19.30
2019-04-07T08:45:57.960Z,19.13
2019-04-07T08:48:27.936Z,19.30
2019-04-07T08:50:59.576Z,19.17
2019-04-07T08:53:28.420Z,18.13
2019-04-07T08:55:57.755Z,19.77
2019-04-07T08:58:29.767Z,19.37
2019-04-07T09:00:58.557Z,17.53
2019-04-07T09:03:28.043Z,17.23
2019-04-07T09:05:58.291Z,17.27
2019-04-07T09:08:27.896Z,16.73
2019-04-07T09:11:20.036Z,16.53
2019-04-07T09:13:54.801Z,15.83
2019-04-07T09:16:31.200Z,15.57
2019-04-07T09:19:22.520Z,14.85
2019-04-07T09:22:09.532Z,14.57
2019-04-07T09:25:06.678Z,13.95
2019-04-07T09:27:46.065Z,14.17
2019-04-07T09:30:24.991Z,12.78
2019-04-07T09:33:11.393Z,13.25
2019-04-07T09:35:54.735Z,12.15
2019-04-07T09:38:41.186Z,13.10
2019-04-07T09:41:36.358Z,13.30
2019-04-07T09:44:25.414Z,11.90
2019-04-07T09:47:31.972Z,10.78
2019-04-07T09:50:20.437Z,11.28
2019-04-07T09:53:02.084Z,11.85
2019-04-07T09:55:57.965Z,11.65
2019-04-07T09:58:42.680Z,11.22
2019-04-07T10:01:31.867Z,11.33
2019-04-07T10:04:26.117Z,11.15
2019-04-07T10:07:18.290Z,10.15
2019-04-07T10:10:13.028Z,10.48
2019-04-07T10:13:03.085Z,9.73
2019-04-07T10:15:51.018Z,9.63
2019-04-07T10:18:40.117Z,10.23
2019-04-07T10:21:35.050Z,10.98
2019-04-07T10:24:23.641Z,10.27
2019-04-07T10:27:04.100Z,10.55
2019-04-07T10:30:01.098Z,9.90
2019-04-07T10:32:37.193Z,9.70
2019-04-07T10:35:15.687Z,10.00
2019-04-07T10:37:52.471Z,8.97
2019-04-07T10:40:37.934Z,8.67
2019-04-07T10:43:26.488Z,9.57
2019-04-07T10:46:17.985Z,9.37
2019-04-07T10:49:06.946Z,8.67
2019-04-07T10:52:03.149Z,9.90
2019-04-07T10:54:58.363Z,10.73
2019-04-07T10:57:38.005Z,10.33
2019-04-07T11:00:28.091Z,10.17
2019-04-07T11:03:15.201Z,11.00
2019-04-07T11:06:00.387Z,10.30
2019-04-07T11:08:47.648Z,9.55
2019-04-07T11:11:51.271Z,9.03
2019-04-07T11:14:45.520Z,9.43
2019-04-07T11:17:25.263Z,9.63
2019-04-07T11:20:04.486Z,8.60
2019-04-07T11:23:04.916Z,9.45
2019-04-07T11:25:45.035Z,9.55
2019-04-07T11:28:21.791Z,9.25
2019-04-07T11:31:10.270Z,9.73
2019-04-07T11:33:50.724Z,8.60
2019-04-07T11:36:34.280Z,9.28
2019-04-07T11:39:38.724Z,9.23
2019-04-07T11:42:30.641Z,8.68
2019-04-07T11:45:09.177Z,8.20
2019-04-07T11:47:52.604Z,8.30
2019-04-07T11:50:27.969Z,9.53
2019-04-07T11:53:29.391Z,8.45
2019-04-07T11:56:09.859Z,8.90
2019-04-07T11:59:00.628Z,8.67
2019-04-07T12:01:46.871Z,9.20
2019-04-07T12:04:36.837Z,8.77
2019-04-07T12:07:31.083Z,9.40
2019-04-07T12:10:14.169Z,9.37
2019-04-07T12:12:56.001Z,8.67
2019-04-07T12:15:43.007Z,9.10
2019-04-07T12:18:30.903Z,9.13
2019-04-07T12:21:22.562Z,8.70
2019-04-07T12:24:23.928Z,9.10
2019-04-07T12:27:17.267Z,8.70
2019-04-07T12:30:05.373Z,9.10
2019-04-07T12:33:06.556Z,8.20
2019-04-07T12:35:55.183Z,8.93
2019-04-07T12:38:45.134Z,8.77
2019-04-07T12:41:25.363Z,9.20
2019-04-07T12:44:31.950Z,7.87
2019-04-07T12:47:15.753Z,8.67
2019-04-07T12:50:02.049Z,8.73
2019-04-07T12:52:54.034Z,8.20
2019-04-07T12:55:41.735Z,9.00
2019-04-07T12:58:30.152Z,8.97
2019-04-07T13:01:15.319Z,8.37
2019-04-07T13:04:01.116Z,8.57
2019-04-07T13:06:47.041Z,8.30
2019-04-07T13:09:29.681Z,8.70
2019-04-07T13:12:15.097Z,7.97
2019-04-07T13:15:03.591Z,7.77
2019-04-07T13:17:52.750Z,8.00
2019-04-07T13:20:52.032Z,8.53
2019-04-07T13:23:50.322Z,7.90
2019-04-07T13:26:37.462Z,8.00
2019-04-07T13:29:20.563Z,7.83
2019-04-07T13:32:06.155Z,7.90
2019-04-07T13:34:44.601Z,7.77
2019-04-07T13:37:36.716Z,7.80
2019-04-07T13:40:22.929Z,7.77
2019-04-07T13:43:21.148Z,7.77
2019-04-07T13:46:22.224Z,7.77
2019-04-07T13:49:08.535Z,6.50
2019-04-07T13:51:59.187Z,7.00
2019-04-07T13:54:48.245Z,7.53
2019-04-07T13:57:40.479Z,7.33
2019-04-07T14:00:35.770Z,6.43
2019-04-07T14:03:42.711Z,7.13
2019-04-07T14:06:29.914Z,7.53
2019-04-07T14:09:17.003Z,7.13
2019-04-07T14:12:21.625Z,7.00
2019-04-07T14:15:01.666Z,8.57
2019-04-07T14:17:43.825Z,7.67
2019-04-07T14:20:31.905Z,7.77
2019-04-07T14:23:12.183Z,7.80
2019-04-07T14:26:03.513Z,7.80
2019-04-07T14:28:41.281Z,7.60
2019-04-07T14:31:35.793Z,7.43
2019-04-07T14:34:36.049Z,8.27
2019-04-07T14:37:26.493Z,7.50
2019-04-07T14:40:21.411Z,8.17
2019-04-07T14:43:12.592Z,7.87
2019-04-07T14:45:55.565Z,8.10
2019-04-07T14:48:32.577Z,7.90
2019-04-07T14:51:17.617Z,8.10
2019-04-07T14:53:57.293Z,8.03
2019-04-07T14:56:44.589Z,8.63
2019-04-07T14:59:42.595Z,8.60
2019-04-07T15:02:13.864Z,8.23
2019-04-07T15:04:47.771Z,7.30
2019-04-07T15:07:31.087Z,7.70
2019-04-07T15:10:11.590Z,7.97
2019-04-07T15:12:45.705Z,8.70
2019-04-07T15:15:15.979Z,8.10
2019-04-07T15:17:45.744Z,8.20
2019-04-07T15:20:16.100Z,7.33
2019-04-07T15:22:47.265Z,7.40
2019-04-07T15:25:16.678Z,7.40
2019-04-07T15:27:45.943Z,7.80
2019-04-07T15:30:16.563Z,8.37
2019-04-07T15:32:46.222Z,7.90
2019-04-07T15:35:16.482Z,8.37
2019-04-07T15:37:46.624Z,8.40
2019-04-07T15:40:16.074Z,8.10
2019-04-07T15:42:50.000Z,8.33
2019-04-07T15:45:16.547Z,8.40
2019-04-07T15:47:47.196Z,7.70
2019-04-07T15:50:18.014Z,7.47
2019-04-07T15:52:47.404Z,7.43
2019-04-07T15:55:16.938Z,8.70
2019-04-07T15:57:46.355Z,7.60
2019-04-07T16:00:16.572Z,7.97
2019-04-07T16:02:46.133Z,7.97
2019-04-07T16:05:15.946Z,7.77
2019-04-07T16:07:46.595Z,8.53
2019-04-07T16:10:18.702Z,7.10
2019-04-07T16:12:52.133Z,7.73
2019-04-07T16:15:18.531Z,7.80
2019-04-07T16:17:49.127Z,8.00
2019-04-07T16:20:24.543Z,7.33
2019-04-07T16:22:51.435Z,8.63
2019-04-07T16:25:25.416Z,7.60
2019-04-07T16:27:52.089Z,8.00
2019-04-07T16:30:21.620Z,8.03
2019-04-07T16:32:50.917Z,7.77
2019-04-07T16:35:20.360Z,8.07
2019-04-07T16:37:49.620Z,8.37
2019-04-07T16:40:19.618Z,7.60
2019-04-07T16:43:04.740Z,8.73
2019-04-07T16:45:19.986Z,8.20
2019-04-07T16:47:49.967Z,12.07
2019-04-07T16:50:20.653Z,8.07
2019-04-07T16:52:50.942Z,7.63
2019-04-07T16:55:41.776Z,7.60
2019-04-07T16:58:11.769Z,7.53
2019-04-07T17:00:41.887Z,8.43
2019-04-07T17:03:11.644Z,7.53
2019-04-07T17:05:41.257Z,8.17
2019-04-07T17:08:10.877Z,7.73
2019-04-07T17:10:41.105Z,8.30
2019-04-07T17:13:18.712Z,8.47
2019-04-07T17:15:42.315Z,7.80
2019-04-07T17:18:39.152Z,7.60
2019-04-07T17:21:15.405Z,8.63
2019-04-07T17:23:45.602Z,8.33
2019-04-07T17:26:15.011Z,8.37
2019-04-07T17:28:46.072Z,7.43
2019-04-07T17:31:15.702Z,8.07
2019-04-07T17:33:45.697Z,8.53
2019-04-07T17:36:17.601Z,8.47
2019-04-07T17:38:52.525Z,7.90
2019-04-07T17:41:24.720Z,8.47
2019-04-07T17:44:03.009Z,8.67
2019-04-07T17:46:47.106Z,8.37
2019-04-07T17:49:30.874Z,7.93
2019-04-07T17:52:15.404Z,9.07
2019-04-07T17:54:54.368Z,8.67
2019-04-07T17:57:37.099Z,8.57
2019-04-07T18:00:26.927Z,8.80
2019-04-07T18:03:18.174Z,8.67
2019-04-07T18:06:00.454Z,9.33
2019-04-07T18:08:45.994Z,9.17
2019-04-07T18:11:25.173Z,9.63
2019-04-07T18:14:13.507Z,8.80
2019-04-07T18:17:00.881Z,9.00
2019-04-07T18:19:59.513Z,9.27
2019-04-07T18:22:58.161Z,9.87
2019-04-07T18:25:52.167Z,9.77
2019-04-07T18:28:31.714Z,9.20
2019-04-07T18:31:20.804Z,9.70
2019-04-07T18:34:13.092Z,10.13
2019-04-07T18:36:52.203Z,9.17
2019-04-07T18:39:54.653Z,9.50
2019-04-07T18:42:43.405Z,9.67
2019-04-07T18:45:23.178Z,9.87
2019-04-07T18:48:12.416Z,9.60
2019-04-07T18:51:05.784Z,9.60
2019-04-07T18:53:48.610Z,10.83
2019-04-07T18:56:44.012Z,10.13
2019-04-07T18:59:33.161Z,9.67
2019-04-07T19:02:21.728Z,9.10
2019-04-07T19:05:14.433Z,10.10
2019-04-07T19:08:09.306Z,10.53
2019-04-07T19:10:45.453Z,9.27
2019-04-07T19:13:26.966Z,10.57
2019-04-07T19:16:18.733Z,10.67
2019-04-07T19:19:03.224Z,10.13
2019-04-07T19:21:59.273Z,10.03
2019-04-07T19:24:47.556Z,9.83
2019-04-07T19:27:42.668Z,9.20
2019-04-07T19:30:31.265Z,9.90
2019-04-07T19:33:14.893Z,9.27
2019-04-07T19:35:51.935Z,10.00
2019-04-07T19:38:43.353Z,9.60
2019-04-07T19:41:40.653Z,10.23
2019-04-07T19:44:33.925Z,10.80
2019-04-07T19:47:16.280Z,10.63
2019-04-07T19:50:03.127Z,10.93
2019-04-07T19:52:46.544Z,10.63
2019-04-07T19:55:26.335Z,10.53
2019-04-07T19:58:14.106Z,10.37
2019-04-07T20:01:06.304Z,11.17
2019-04-07T20:03:53.975Z,11.90
2019-04-07T20:06:41.844Z,10.50
2019-04-07T20:09:30.042Z,9.90
2019-04-07T20:12:18.500Z,11.80
2019-04-07T20:15:16.155Z,9.63
2019-04-07T20:18:05.229Z,11.53
2019-04-07T20:20:43.643Z,10.67
2019-04-07T20:23:35.759Z,11.17
2019-04-07T20:26:33.035Z,11.53
2019-04-07T20:29:22.404Z,10.60
2019-04-07T20:32:00.520Z,10.60
2019-04-07T20:34:48.974Z,10.33
2019-04-07T20:37:37.980Z,10.47
2019-04-07T20:40:38.847Z,10.13
2019-04-07T20:43:28.459Z,11.13
2019-04-07T20:46:19.125Z,9.77
2019-04-07T20:49:06.525Z,18.70
2019-04-07T20:51:54.508Z,13.63
2019-04-07T20:54:48.991Z,11.73
2019-04-07T20:58:10.177Z,11.17
2019-04-07T21:01:05.125Z,11.15
2019-04-07T21:03:53.191Z,11.80
2019-04-07T21:06:44.425Z,11.80
2019-04-07T21:09:24.197Z,11.90
2019-04-07T21:12:17.343Z,10.87
2019-04-07T21:15:18.217Z,11.50
2019-04-07T21:18:04.697Z,11.10
2019-04-07T21:20:48.388Z,11.43
2019-04-07T21:23:39.097Z,11.00
2019-04-07T21:26:27.791Z,11.67
2019-04-07T21:29:10.985Z,11.70
2019-04-07T21:31:56.050Z,11.67
2019-04-07T21:34:51.521Z,11.70
2019-04-07T21:37:49.963Z,12.00
2019-04-07T21:40:28.645Z,11.73
2019-04-07T21:43:06.840Z,10.93
2019-04-07T21:45:58.407Z,12.30
2019-04-07T21:48:53.004Z,12.67
2019-04-07T21:51:32.001Z,13.00
2019-04-07T21:54:23.210Z,12.23
2019-04-07T21:57:09.907Z,12.50
2019-04-07T22:00:07.389Z,12.10
2019-04-07T22:03:16.660Z,13.07
2019-04-07T22:05:57.891Z,12.17
2019-04-07T22:08:31.522Z,11.80
2019-04-07T22:11:01.543Z,12.67
2019-04-07T22:13:33.031Z,11.97
2019-04-07T22:16:03.937Z,11.87
2019-04-07T22:18:33.169Z,12.10
2019-04-07T22:21:03.361Z,12.40
2019-04-07T22:23:33.705Z,12.03
2019-04-07T22:26:03.409Z,11.63
2019-04-07T22:28:33.285Z,11.97
2019-04-07T22:31:03.580Z,11.83
2019-04-07T22:33:33.753Z,11.73
2019-04-07T22:36:03.882Z,11.20
2019-04-07T22:38:33.623Z,12.27
2019-04-07T22:41:06.752Z,12.40
2019-04-07T22:43:34.932Z,12.63
2019-04-07T22:46:14.741Z,12.57
2019-04-07T22:48:36.415Z,12.10
2019-04-07T22:51:09.937Z,11.90
2019-04-07T22:53:37.182Z,12.17
2019-04-07T22:56:07.901Z,11.90
2019-04-07T22:58:38.127Z,11.53
2019-04-07T23:01:07.723Z,11.33
2019-04-07T23:03:37.150Z,11.20
2019-04-07T23:06:06.546Z,12.33
2019-04-07T23:08:37.012Z,12.13
2019-04-07T23:11:06.419Z,10.80
2019-04-07T23:13:35.991Z,12.17
2019-04-07T23:16:10.796Z,11.30
2019-04-07T23:18:36.644Z,12.53
2019-04-07T23:21:06.104Z,12.33
2019-04-07T23:23:36.061Z,12.20
2019-04-07T23:26:05.687Z,11.43
2019-04-07T23:28:35.092Z,11.20
2019-04-07T23:31:05.432Z,12.90
2019-04-07T23:33:34.908Z,12.47
2019-04-07T23:36:04.223Z,13.20
2019-04-07T23:38:34.673Z,12.67
2019-04-07T23:41:04.087Z,12.10
2019-04-07T23:43:33.515Z,12.10
2019-04-07T23:46:03.277Z,12.93
2019-04-07T23:48:33.590Z,13.30
2019-04-07T23:51:03.748Z,13.63
2019-04-07T23:54:11.025Z,13.60
2019-04-07T23:56:43.652Z,13.53
2019-04-07T23:59:14.622Z,14.07
